createdAt,value
2022-10-04T00:01:55.992Z,7.38
2022-10-04T00:04:27.012Z,7.93
2022-10-04T00:09:37.596Z,7.65
2022-10-04T00:12:07.412Z,7.88
2022-10-04T00:14:39.263Z,8.85
2022-10-04T00:17:15.120Z,8.48
2022-10-04T00:19:50.110Z,8.02
2022-10-04T00:22:28.559Z,7.90
2022-10-04T00:25:07.714Z,8.00
2022-10-04T00:27:36.693Z,7.88
2022-10-04T00:30:03.562Z,8.13
2022-10-04T00:32:57.744Z,8.25
2022-10-04T00:35:27.416Z,8.77
2022-10-04T00:37:57.937Z,9.45
2022-10-04T00:40:33.101Z,8.73
2022-10-04T00:43:05.157Z,8.75
2022-10-04T00:45:39.182Z,8.70
2022-10-04T00:48:08.679Z,7.82
2022-10-04T00:51:00.189Z,8.55
2022-10-04T00:54:14.992Z,8.43
2022-10-04T00:56:51.510Z,8.75
2022-10-04T00:59:44.473Z,8.32
2022-10-04T01:02:18.769Z,8.82
2022-10-04T01:04:56.812Z,8.55
2022-10-04T01:07:28.824Z,8.90
2022-10-04T01:10:07.864Z,8.95
2022-10-04T01:12:43.989Z,9.35
2022-10-04T01:15:27.454Z,9.90
2022-10-04T01:18:16.507Z,8.77
2022-10-04T01:20:58.900Z,9.35
2022-10-04T01:23:52.413Z,9.15
2022-10-04T01:26:32.177Z,9.20
2022-10-04T01:29:00.705Z,8.85
2022-10-04T01:31:32.789Z,10.10
2022-10-04T01:34:03.373Z,8.77
2022-10-04T01:36:30.157Z,8.70
2022-10-04T01:38:57.149Z,8.57
2022-10-04T01:41:33.595Z,10.07
2022-10-04T01:44:03.796Z,8.95
2022-10-04T01:46:36.825Z,9.65
2022-10-04T01:49:10.917Z,8.98
2022-10-04T01:51:45.654Z,9.10
2022-10-04T01:54:20.685Z,9.68
2022-10-04T01:57:00.438Z,9.05
2022-10-04T01:59:37.647Z,9.52
2022-10-04T02:02:10.911Z,8.98
2022-10-04T02:04:41.117Z,9.48
2022-10-04T02:07:15.780Z,8.88
2022-10-04T02:09:46.636Z,9.48
2022-10-04T02:12:18.696Z,8.85
2022-10-04T02:14:55.663Z,9.68
2022-10-04T02:17:29.634Z,10.23
2022-10-04T02:19:57.941Z,9.02
2022-10-04T02:22:26.248Z,9.65
2022-10-04T02:24:56.011Z,9.90
2022-10-04T02:27:31.106Z,10.18
2022-10-04T02:30:07.010Z,9.85
2022-10-04T02:32:52.769Z,9.52
2022-10-04T02:35:20.232Z,10.23
2022-10-04T02:37:59.059Z,9.65
2022-10-04T02:40:32.304Z,9.35
2022-10-04T02:43:27.869Z,9.40
2022-10-04T02:46:14.213Z,9.65
2022-10-04T02:48:47.808Z,9.82
2022-10-04T02:51:25.796Z,9.55
2022-10-04T02:54:03.688Z,10.32
2022-10-04T02:56:32.381Z,10.15
2022-10-04T02:59:04.574Z,9.30
2022-10-04T03:01:56.107Z,9.38
2022-10-04T03:04:28.003Z,9.25
2022-10-04T03:06:56.173Z,9.32
2022-10-04T03:09:29.486Z,9.85
2022-10-04T03:11:57.274Z,8.88
2022-10-04T03:14:26.604Z,9.10
2022-10-04T03:16:55.877Z,9.63
2022-10-04T03:19:27.058Z,9.40
2022-10-04T03:21:57.875Z,9.40
2022-10-04T03:24:33.155Z,8.82
2022-10-04T03:27:04.404Z,9.30
2022-10-04T03:29:33.994Z,9.60
2022-10-04T03:32:03.858Z,9.05
2022-10-04T03:34:38.886Z,9.43
2022-10-04T03:37:13.242Z,9.63
2022-10-04T03:39:47.349Z,9.27
2022-10-04T03:42:24.252Z,8.63
2022-10-04T03:44:54.067Z,10.20
2022-10-04T03:47:25.209Z,9.20
2022-10-04T03:49:55.362Z,9.32
2022-10-04T03:52:27.054Z,9.50
2022-10-04T03:54:57.274Z,9.52
2022-10-04T03:57:25.037Z,9.20
2022-10-04T03:59:52.884Z,9.70
2022-10-04T04:02:45.645Z,9.30
2022-10-04T04:05:45.172Z,8.73
2022-10-04T04:08:35.235Z,9.00
2022-10-04T04:11:05.112Z,9.20
2022-10-04T04:13:34.697Z,9.43
2022-10-04T04:16:02.670Z,10.15
2022-10-04T04:18:33.719Z,10.48
2022-10-04T04:23:35.159Z,8.82
2022-10-04T04:26:36.653Z,10.10
2022-10-04T04:29:18.882Z,10.13
2022-10-04T04:31:47.238Z,10.15
2022-10-04T04:34:24.821Z,10.10
2022-10-04T04:36:58.830Z,9.82
2022-10-04T04:39:39.823Z,9.93
2022-10-04T04:42:21.185Z,10.10
2022-10-04T04:44:50.947Z,8.93
2022-10-04T04:47:35.819Z,10.13
2022-10-04T04:50:17.537Z,9.77
2022-10-04T04:52:48.745Z,9.18
2022-10-04T04:55:21.514Z,9.65
2022-10-04T04:57:50.642Z,10.55
2022-10-04T05:00:20.813Z,12.23
2022-10-04T05:02:58.505Z,18.58
2022-10-04T05:05:28.783Z,13.20
2022-10-04T05:08:20.723Z,10.43
2022-10-04T05:10:56.658Z,9.98
2022-10-04T05:13:31.921Z,8.95
2022-10-04T05:15:59.701Z,8.60
2022-10-04T05:18:33.195Z,9.55
2022-10-04T05:21:07.094Z,9.02
2022-10-04T05:23:34.701Z,11.05
2022-10-04T05:26:04.185Z,11.10
2022-10-04T05:28:31.528Z,10.95
2022-10-04T05:31:13.365Z,11.00
2022-10-04T05:33:54.071Z,10.27
2022-10-04T05:36:43.984Z,9.10
2022-10-04T05:39:25.201Z,9.10
2022-10-04T05:42:05.674Z,8.88
2022-10-04T05:44:36.941Z,10.10
2022-10-04T05:47:08.049Z,10.48
2022-10-04T05:49:44.048Z,10.05
2022-10-04T05:52:36.039Z,9.38
2022-10-04T05:55:37.624Z,9.52
2022-10-04T05:58:39.820Z,8.77
2022-10-04T06:01:17.319Z,8.93
2022-10-04T06:03:53.691Z,8.88
2022-10-04T06:06:26.162Z,12.50
2022-10-04T06:09:11.526Z,10.88
2022-10-04T06:12:01.198Z,10.00
2022-10-04T06:14:58.416Z,8.57
2022-10-04T06:17:46.476Z,8.75
2022-10-04T06:20:37.798Z,9.60
2022-10-04T06:23:16.495Z,8.77
2022-10-04T06:25:49.193Z,9.55
2022-10-04T06:28:22.840Z,8.63
2022-10-04T06:30:55.423Z,9.45
2022-10-04T06:33:37.335Z,8.57
2022-10-04T06:36:29.262Z,8.18
2022-10-04T06:39:20.185Z,9.98
2022-10-04T06:42:05.574Z,7.95
2022-10-04T06:44:36.751Z,7.63
2022-10-04T06:47:35.421Z,8.32
2022-10-04T06:50:50.502Z,8.55
2022-10-04T06:53:51.500Z,8.73
2022-10-04T06:56:31.122Z,7.55
2022-10-04T06:59:17.319Z,8.18
2022-10-04T07:02:04.221Z,7.57
2022-10-04T07:05:13.261Z,7.78
2022-10-04T07:07:47.621Z,7.68
2022-10-04T07:10:47.233Z,7.70
2022-10-04T07:13:37.570Z,8.40
2022-10-04T07:16:08.175Z,7.78
2022-10-04T07:18:58.055Z,7.65
2022-10-04T07:21:33.525Z,7.55
2022-10-04T07:24:03.720Z,8.35
2022-10-04T07:26:43.530Z,8.95
2022-10-04T07:29:31.012Z,7.78
2022-10-04T07:32:14.254Z,7.90
2022-10-04T07:34:57.787Z,7.32
2022-10-04T07:37:29.022Z,7.63
2022-10-04T07:40:18.273Z,7.35
2022-10-04T07:42:44.990Z,8.93
2022-10-04T07:45:22.630Z,9.68
2022-10-04T07:47:50.355Z,8.23
2022-10-04T07:50:30.458Z,7.85
2022-10-04T07:53:15.309Z,8.00
2022-10-04T07:56:00.275Z,7.82
2022-10-04T07:58:48.401Z,8.23
2022-10-04T08:01:50.458Z,8.48
2022-10-04T08:04:41.638Z,9.27
2022-10-04T08:07:32.598Z,8.15
2022-10-04T08:12:53.090Z,8.13
2022-10-04T08:15:25.697Z,9.00
2022-10-04T08:18:33.379Z,8.32
2022-10-04T08:21:05.483Z,7.95
2022-10-04T08:24:00.179Z,8.52
2022-10-04T08:26:26.871Z,9.15
2022-10-04T08:29:42.348Z,7.57
2022-10-04T08:32:47.675Z,7.68
2022-10-04T08:35:36.175Z,8.07
2022-10-04T08:38:22.617Z,9.05
2022-10-04T08:40:52.090Z,8.70
2022-10-04T08:43:43.207Z,8.75
2022-10-04T08:46:12.812Z,8.30
